createdAt,value
2018-04-25T00:01:45.493Z,100207.36
2018-04-25T00:04:11.349Z,100205.90
2018-04-25T00:06:37.208Z,100203.39
2018-04-25T00:09:03.106Z,100190.66
2018-04-25T00:11:28.954Z,100185.55
2018-04-25T00:13:54.778Z,100181.42
2018-04-25T00:16:21.472Z,100182.34
2018-04-25T00:18:47.312Z,100174.84
2018-04-25T00:21:13.177Z,100171.25
2018-04-25T00:23:39.022Z,100171.25
2018-04-25T00:26:04.887Z,100163.36
2018-04-25T00:28:30.731Z,100163.15
2018-04-25T00:30:56.572Z,100161.44
2018-04-25T00:33:22.424Z,100153.81
2018-04-25T00:35:48.275Z,100151.98
2018-04-25T00:38:14.130Z,100147.47
2018-04-25T00:40:39.962Z,100136.05
2018-04-25T00:43:05.827Z,100140.39
2018-04-25T00:45:31.704Z,100133.70
2018-04-25T00:47:57.584Z,100129.91
2018-04-25T00:50:23.443Z,100117.45
2018-04-25T00:52:49.449Z,100114.94
2018-04-25T00:55:15.316Z,100110.61
2018-04-25T00:57:41.167Z,100103.09
2018-04-25T01:00:07.079Z,100101.33
2018-04-25T01:02:32.921Z,100095.56
2018-04-25T01:04:58.780Z,100088.91
2018-04-25T01:07:24.642Z,100091.48
2018-04-25T01:09:50.497Z,100087.86
2018-04-25T01:12:16.352Z,100079.45
2018-04-25T01:14:42.201Z,100080.38
2018-04-25T01:17:08.102Z,100076.02
2018-04-25T01:19:33.985Z,100073.55
2018-04-25T01:21:59.933Z,100066.78
2018-04-25T01:24:25.790Z,100057.44
2018-04-25T01:26:51.717Z,100051.73
2018-04-25T01:29:17.581Z,100043.22
2018-04-25T01:31:58.397Z,100040.07
2018-04-25T01:34:25.275Z,100027.16
2018-04-25T01:37:02.331Z,100024.96
2018-04-25T01:39:35.317Z,100016.25
2018-04-25T01:42:01.233Z,100010.53
2018-04-25T01:44:29.102Z,100011.77
2018-04-25T01:46:56.841Z,100013.72
2018-04-25T01:49:29.823Z,100005.95
2018-04-25T01:52:08.146Z,100007.02
2018-04-25T01:54:46.332Z,100004.81
2018-04-25T01:57:24.612Z,100000.80
2018-04-25T02:00:02.838Z,99994.20
2018-04-25T02:02:28.555Z,99994.03
2018-04-25T02:04:54.412Z,99983.56
2018-04-25T02:07:20.249Z,99981.72
2018-04-25T02:09:46.095Z,99974.75
2018-04-25T02:12:11.945Z,99967.18
2018-04-25T02:14:37.811Z,99967.04
2018-04-25T02:17:03.656Z,99960.02
2018-04-25T02:19:29.504Z,99953.88
2018-04-25T02:21:55.345Z,99947.73
2018-04-25T02:24:21.189Z,99941.52
2018-04-25T02:26:47.044Z,99945.09
2018-04-25T02:29:12.895Z,99936.23
2018-04-25T02:31:38.741Z,99933.55
2018-04-25T02:34:04.605Z,99936.16
2018-04-25T02:36:30.458Z,99930.91
2018-04-25T02:38:56.298Z,99926.66
2018-04-25T02:41:22.152Z,99912.47
2018-04-25T02:43:47.992Z,99906.80
2018-04-25T02:46:13.849Z,99896.02
2018-04-25T02:48:39.675Z,99896.72
2018-04-25T02:51:05.512Z,99892.31
2018-04-25T02:53:31.360Z,99892.61
2018-04-25T02:55:57.207Z,99894.26
2018-04-25T02:58:23.064Z,99893.30
2018-04-25T03:00:48.923Z,99890.02
2018-04-25T03:03:14.773Z,99883.83
2018-04-25T03:05:40.598Z,99886.23
2018-04-25T03:08:06.451Z,99880.91
2018-04-25T03:10:32.300Z,99871.77
2018-04-25T03:12:58.168Z,99873.52
2018-04-25T03:15:24.048Z,99869.55
2018-04-25T03:17:49.882Z,99866.27
2018-04-25T03:20:15.725Z,99873.22
2018-04-25T03:22:41.575Z,99869.66
2018-04-25T03:25:07.415Z,99866.52
2018-04-25T03:27:33.250Z,99859.86
2018-04-25T03:29:59.099Z,99855.03
2018-04-25T03:32:24.935Z,99852.98
2018-04-25T03:34:50.776Z,99845.59
2018-04-25T03:37:16.615Z,99843.40
2018-04-25T03:39:42.489Z,99849.59
2018-04-25T03:42:08.342Z,99842.84
2018-04-25T03:44:34.193Z,99832.64
2018-04-25T03:47:00.059Z,99834.27
2018-04-25T03:49:25.907Z,99829.50
2018-04-25T03:51:51.761Z,99819.27
2018-04-25T03:54:17.596Z,99816.55
2018-04-25T03:56:43.430Z,99813.85
2018-04-25T03:59:09.271Z,99818.59
2018-04-25T04:01:35.143Z,99808.77
2018-04-25T04:04:00.981Z,99801.59
2018-04-25T04:06:26.834Z,99807.74
2018-04-25T04:08:52.670Z,99805.10
2018-04-25T04:11:18.548Z,99805.98
2018-04-25T04:13:44.444Z,99795.37
2018-04-25T04:16:10.285Z,99801.17
2018-04-25T04:18:36.160Z,99813.48
2018-04-25T04:21:01.999Z,99794.12
2018-04-25T04:23:27.845Z,99793.69
2018-04-25T04:25:53.708Z,99784.88
2018-04-25T04:28:19.564Z,99772.55
2018-04-25T04:30:45.423Z,99774.27
2018-04-25T04:33:11.253Z,99778.58
2018-04-25T04:35:37.124Z,99777.55
2018-04-25T04:38:03.001Z,99785.02
2018-04-25T04:40:28.849Z,99773.42
2018-04-25T04:42:54.700Z,99775.13
2018-04-25T04:45:35.527Z,99773.34
2018-04-25T04:48:01.365Z,99773.80
2018-04-25T04:50:27.209Z,99770.70
2018-04-25T04:52:53.089Z,99764.40
2018-04-25T04:55:18.924Z,99777.48
2018-04-25T04:57:44.766Z,99779.94
2018-04-25T05:00:10.619Z,99789.48
2018-04-25T05:02:36.466Z,99784.70
2018-04-25T05:05:02.289Z,99788.03
2018-04-25T05:07:28.147Z,99781.32
2018-04-25T05:09:53.979Z,99782.23
2018-04-25T05:12:19.851Z,99785.82
2018-04-25T05:14:45.705Z,99785.36
2018-04-25T05:17:11.556Z,99782.15
2018-04-25T05:19:37.399Z,99776.50
2018-04-25T05:22:03.255Z,99784.20
2018-04-25T05:24:29.192Z,99782.50
2018-04-25T05:26:55.010Z,99782.56
2018-04-25T05:29:20.880Z,99787.27
2018-04-25T05:31:46.762Z,99782.73
2018-04-25T05:34:12.612Z,99767.61
2018-04-25T05:36:38.460Z,99770.03
2018-04-25T05:39:04.304Z,99772.73
2018-04-25T05:41:30.177Z,99765.53
2018-04-25T05:43:56.044Z,99769.22
2018-04-25T05:46:21.898Z,99771.55
2018-04-25T05:48:47.759Z,99777.72
2018-04-25T05:51:13.632Z,99776.42
2018-04-25T05:53:39.480Z,99774.81
2018-04-25T05:56:05.326Z,99774.41
2018-04-25T05:58:31.171Z,99776.54
2018-04-25T06:00:57.089Z,99775.59
2018-04-25T06:03:22.897Z,99777.59
2018-04-25T06:05:48.734Z,99775.16
2018-04-25T06:08:14.607Z,99772.80
2018-04-25T06:10:40.467Z,99765.63
2018-04-25T06:13:06.315Z,99774.20
2018-04-25T06:15:32.182Z,99770.39
2018-04-25T06:17:58.052Z,99769.82
2018-04-25T06:20:24.026Z,99770.63
2018-04-25T06:22:49.828Z,99770.60
2018-04-25T06:25:15.675Z,99771.32
2018-04-25T06:27:41.514Z,99771.47
2018-04-25T06:30:07.379Z,99770.30
2018-04-25T06:32:33.222Z,99762.27
2018-04-25T06:34:59.080Z,99771.42
2018-04-25T06:37:24.946Z,99763.17
2018-04-25T06:39:50.825Z,99775.16
2018-04-25T06:42:16.672Z,99763.63
2018-04-25T06:44:42.521Z,99759.89
2018-04-25T06:47:08.377Z,99769.59
2018-04-25T06:49:34.250Z,99762.78
2018-04-25T06:52:00.101Z,99760.77
2018-04-25T06:54:25.960Z,99750.00
2018-04-25T06:56:52.439Z,99752.35
2018-04-25T06:59:18.242Z,99741.97
2018-04-25T07:01:44.083Z,99741.41
2018-04-25T07:04:09.915Z,99737.44
2018-04-25T07:06:35.754Z,99733.87
2018-04-25T07:09:01.579Z,99733.23
2018-04-25T07:11:27.464Z,99733.75
2018-04-25T07:13:53.318Z,99739.71
2018-04-25T07:16:19.236Z,99732.34
2018-04-25T07:18:45.100Z,99736.50
2018-04-25T07:21:10.960Z,99733.72
2018-04-25T07:23:37.603Z,99732.28
2018-04-25T07:26:03.451Z,99738.81
2018-04-25T07:28:29.298Z,99732.50
2018-04-25T07:30:55.161Z,99745.08
2018-04-25T07:33:21.005Z,99746.62
2018-04-25T07:35:46.868Z,99732.88
2018-04-25T07:38:12.711Z,99730.31
2018-04-25T07:40:38.555Z,99729.75
2018-04-25T07:43:04.426Z,99726.41
2018-04-25T07:45:30.307Z,99720.84
2018-04-25T07:47:56.141Z,99730.75
2018-04-25T07:50:21.985Z,99727.43
2018-04-25T07:52:47.859Z,99731.55
2018-04-25T07:55:13.682Z,99736.63
2018-04-25T07:57:39.585Z,99757.33
2018-04-25T08:00:05.427Z,99739.23
2018-04-25T08:02:31.288Z,99720.70
2018-04-25T08:04:57.147Z,99760.94
2018-04-25T08:07:23.003Z,99744.11
2018-04-25T08:09:48.851Z,99751.52
2018-04-25T08:12:27.200Z,99745.35
2018-04-25T08:15:05.482Z,99759.44
2018-04-25T08:17:43.704Z,99755.42
2018-04-25T08:20:21.750Z,99753.48
2018-04-25T08:22:47.597Z,99805.00
2018-04-25T08:25:14.190Z,99820.19
2018-04-25T08:27:40.025Z,99820.32
2018-04-25T08:30:05.874Z,99836.79
2018-04-25T08:32:31.719Z,99851.81
2018-04-25T08:34:57.571Z,99851.42
2018-04-25T08:37:23.436Z,99896.12
2018-04-25T08:39:49.301Z,99837.31
2018-04-25T08:42:15.169Z,99868.50
2018-04-25T08:44:41.105Z,99850.91
2018-04-25T08:47:06.887Z,99839.99
2018-04-25T08:49:32.776Z,99841.71
2018-04-25T08:51:58.635Z,99841.94
2018-04-25T08:54:24.485Z,99835.46
2018-04-25T08:56:50.367Z,99842.89
2018-04-25T08:59:16.311Z,99849.13
2018-04-25T09:01:42.100Z,99850.84
2018-04-25T09:04:07.974Z,99847.27
2018-04-25T09:06:33.822Z,99854.99
2018-04-25T09:08:59.680Z,99880.00
2018-04-25T09:11:25.523Z,99853.84
2018-04-25T09:13:51.367Z,99871.58
2018-04-25T09:16:17.238Z,99845.70
2018-04-25T09:18:43.098Z,99850.63
2018-04-25T09:21:08.967Z,99857.36
2018-04-25T09:23:34.841Z,99841.87
2018-04-25T09:26:15.638Z,99882.00
2018-04-25T09:28:41.612Z,99856.05
2018-04-25T09:31:07.461Z,99851.24
2018-04-25T09:33:33.329Z,99855.86
2018-04-25T09:35:59.167Z,99847.29
2018-04-25T09:38:25.019Z,99856.00
2018-04-25T09:40:50.869Z,99857.88
2018-04-25T09:43:16.703Z,99862.41
2018-04-25T09:45:42.564Z,99880.11
2018-04-25T09:48:08.410Z,99853.90
2018-04-25T09:50:34.253Z,99855.42
2018-04-25T09:53:00.131Z,99859.97
2018-04-25T09:55:25.979Z,99864.36
2018-04-25T09:57:51.844Z,99898.18
2018-04-25T10:00:17.718Z,99892.03
2018-04-25T10:02:43.611Z,99901.40
2018-04-25T10:05:09.447Z,99902.55
2018-04-25T10:07:35.297Z,99938.33
2018-04-25T10:10:01.799Z,99957.44
2018-04-25T10:12:27.676Z,99953.66
2018-04-25T10:14:53.518Z,99924.00
2018-04-25T10:17:19.431Z,99934.09
2018-04-25T10:19:45.253Z,99920.09
2018-04-25T10:22:11.087Z,99965.31
2018-04-25T10:24:36.928Z,99940.37
2018-04-25T10:27:02.803Z,99924.27
2018-04-25T10:29:28.647Z,99953.69
2018-04-25T10:31:54.567Z,99931.19
2018-04-25T10:34:20.372Z,99929.45
2018-04-25T10:36:46.224Z,99936.90
2018-04-25T10:39:12.091Z,99978.52
2018-04-25T10:41:38.768Z,99966.19
2018-04-25T10:44:04.660Z,99967.75
2018-04-25T10:46:30.535Z,99985.86
2018-04-25T10:48:56.384Z,99965.84
2018-04-25T10:51:22.232Z,99967.03
2018-04-25T10:53:48.118Z,99970.70
2018-04-25T10:56:13.945Z,99971.39
2018-04-25T10:58:39.783Z,99980.83
2018-04-25T11:01:05.684Z,99970.80
2018-04-25T11:03:31.519Z,100018.85
2018-04-25T11:05:57.390Z,100001.03
2018-04-25T11:08:23.271Z,99967.36
2018-04-25T11:10:49.134Z,100036.31
2018-04-25T11:13:14.995Z,100022.67
2018-04-25T11:15:40.833Z,100029.93
2018-04-25T11:18:06.661Z,100042.56
2018-04-25T11:20:32.523Z,100028.77
2018-04-25T11:22:58.373Z,100025.03
2018-04-25T11:25:24.216Z,100041.39
2018-04-25T11:27:50.076Z,100029.89
2018-04-25T11:30:15.922Z,100058.72
2018-04-25T11:32:41.762Z,100077.84
2018-04-25T11:35:07.617Z,100030.55
2018-04-25T11:37:33.470Z,100045.12
2018-04-25T11:39:59.312Z,100060.05
2018-04-25T11:42:25.230Z,100063.68
2018-04-25T11:44:51.078Z,100059.00
2018-04-25T11:47:17.026Z,100069.73
2018-04-25T11:49:42.807Z,100074.59
2018-04-25T11:52:08.655Z,100078.09
2018-04-25T11:54:34.539Z,100093.00
2018-04-25T11:57:00.366Z,100081.23
2018-04-25T11:59:26.225Z,100101.08
2018-04-25T12:01:52.083Z,100136.38
2018-04-25T12:04:17.913Z,100096.60
2018-04-25T12:06:43.784Z,100089.77
2018-04-25T12:09:09.632Z,100080.80
2018-04-25T12:11:35.527Z,100120.58
2018-04-25T12:14:01.373Z,100107.63
2018-04-25T12:16:27.271Z,100133.64
2018-04-25T12:18:53.128Z,100155.29
2018-04-25T12:21:18.970Z,100117.83
2018-04-25T12:23:44.825Z,100122.75
2018-04-25T12:26:10.702Z,100122.70
2018-04-25T12:28:36.550Z,100123.97
2018-04-25T12:31:02.424Z,100136.67
2018-04-25T12:33:28.253Z,100143.47
2018-04-25T12:35:54.184Z,100165.39
2018-04-25T12:38:20.009Z,100163.08
2018-04-25T12:40:45.879Z,100171.72
2018-04-25T12:43:11.709Z,100148.80
2018-04-25T12:45:37.529Z,100159.19
2018-04-25T12:48:03.382Z,100165.61
2018-04-25T12:50:29.200Z,100167.62
2018-04-25T12:52:55.056Z,100196.86
2018-04-25T12:55:20.932Z,100200.23
2018-04-25T12:57:46.825Z,100205.58
2018-04-25T13:00:12.699Z,100257.12
2018-04-25T13:02:38.538Z,100224.66
2018-04-25T13:05:04.397Z,100205.78
2018-04-25T13:07:30.239Z,100211.45
2018-04-25T13:09:56.102Z,100211.23
2018-04-25T13:12:21.946Z,100245.37
2018-04-25T13:14:47.828Z,100225.66
2018-04-25T13:17:13.680Z,100223.87
2018-04-25T13:19:39.535Z,100221.67
2018-04-25T13:22:05.412Z,100238.45
2018-04-25T13:24:31.270Z,100248.12
2018-04-25T13:26:57.131Z,100216.49
2018-04-25T13:29:23.005Z,100243.99
2018-04-25T13:31:48.862Z,100246.80
2018-04-25T13:34:14.682Z,100250.94
2018-04-25T13:36:40.574Z,100238.89
2018-04-25T13:39:06.416Z,100258.25
2018-04-25T13:41:32.301Z,100255.44
2018-04-25T13:43:58.213Z,100261.28
2018-04-25T13:46:24.126Z,100260.45
2018-04-25T13:48:50.003Z,100259.06
2018-04-25T13:51:15.890Z,100262.83
2018-04-25T13:53:41.767Z,100270.33
2018-04-25T13:56:07.632Z,100282.36
2018-04-25T13:58:33.527Z,100272.95
2018-04-25T14:00:59.401Z,100273.84
2018-04-25T14:03:25.287Z,100280.30
2018-04-25T14:05:51.149Z,100278.52
2018-04-25T14:08:17.009Z,100279.02
2018-04-25T14:10:42.898Z,100286.66
2018-04-25T14:13:08.851Z,100287.97
2018-04-25T14:15:34.661Z,100285.23
2018-04-25T14:18:00.541Z,100290.84
2018-04-25T14:20:26.395Z,100290.30
2018-04-25T14:22:52.237Z,100289.91
2018-04-25T14:25:18.103Z,100293.55
2018-04-25T14:27:43.967Z,100303.56
2018-04-25T14:30:09.912Z,100302.00
2018-04-25T14:32:35.678Z,100303.06
2018-04-25T14:35:01.528Z,100291.91
2018-04-25T14:37:27.412Z,100289.98
2018-04-25T14:39:53.273Z,100287.47
2018-04-25T14:42:19.149Z,100292.11
2018-04-25T14:44:45.037Z,100296.05
2018-04-25T14:47:10.888Z,100297.05
2018-04-25T14:49:36.744Z,100284.44
2018-04-25T14:52:02.651Z,100285.25
2018-04-25T14:54:28.473Z,100295.50
2018-04-25T14:56:54.371Z,100301.21
2018-04-25T14:59:21.011Z,100294.81
2018-04-25T15:01:46.876Z,100306.23
2018-04-25T15:04:12.757Z,100294.30
2018-04-25T15:06:38.623Z,100294.80
2018-04-25T15:09:04.620Z,100295.85
2018-04-25T15:11:30.464Z,100287.75
2018-04-25T15:13:56.328Z,100298.53
2018-04-25T15:16:22.196Z,100299.89
2018-04-25T15:18:48.074Z,100304.66
2018-04-25T15:21:13.944Z,100298.82
2018-04-25T15:23:39.846Z,100307.30
2018-04-25T15:26:05.721Z,100310.63
2018-04-25T15:28:31.587Z,100311.45
2018-04-25T15:30:57.471Z,100316.27
2018-04-25T15:33:23.349Z,100317.49
2018-04-25T15:35:49.241Z,100312.59
2018-04-25T15:38:15.162Z,100313.21
2018-04-25T15:40:41.079Z,100302.55
2018-04-25T15:43:06.944Z,100310.02
2018-04-25T15:45:32.811Z,100311.77
2018-04-25T15:47:58.686Z,100319.22
2018-04-25T15:50:24.582Z,100335.25
2018-04-25T15:52:50.469Z,100326.30
2018-04-25T15:55:16.317Z,100324.02
2018-04-25T15:57:42.220Z,100317.92
2018-04-25T16:00:08.094Z,100333.89
2018-04-25T16:02:33.994Z,100324.52
2018-04-25T16:04:59.865Z,100325.47
2018-04-25T16:07:25.720Z,100329.47
2018-04-25T16:09:51.576Z,100330.41
2018-04-25T16:12:17.496Z,100331.11
2018-04-25T16:14:43.352Z,100323.66
2018-04-25T16:17:09.248Z,100330.38
2018-04-25T16:19:35.124Z,100328.91
2018-04-25T16:22:00.986Z,100312.23
2018-04-25T16:24:27.486Z,100294.85
2018-04-25T16:26:54.399Z,100299.73
2018-04-25T16:29:20.269Z,100315.23
2018-04-25T16:31:46.147Z,100305.80
2018-04-25T16:34:12.052Z,100303.39
2018-04-25T16:36:37.929Z,100293.77
2018-04-25T16:39:04.702Z,100289.58
2018-04-25T16:41:31.270Z,100307.41
2018-04-25T16:43:57.211Z,100310.08
2018-04-25T16:46:23.113Z,100309.95
2018-04-25T16:48:49.010Z,100306.80
2018-04-25T16:51:14.895Z,100307.27
2018-04-25T16:53:40.776Z,100327.52
2018-04-25T16:56:06.675Z,100324.09
2018-04-25T16:58:32.549Z,100317.12
2018-04-25T17:00:59.453Z,100312.44
2018-04-25T17:03:25.337Z,100312.63
2018-04-25T17:05:51.227Z,100312.77
2018-04-25T17:08:17.097Z,100305.85
2018-04-25T17:10:42.981Z,100303.14
2018-04-25T17:13:08.865Z,100300.39
2018-04-25T17:15:34.763Z,100287.19
2018-04-25T17:18:00.629Z,100291.97
2018-04-25T17:20:27.348Z,100289.96
2018-04-25T17:22:53.877Z,100286.84
2018-04-25T17:25:19.771Z,100284.52
2018-04-25T17:27:45.679Z,100274.76
2018-04-25T17:30:11.531Z,100267.16
2018-04-25T17:32:37.448Z,100264.36
2018-04-25T17:35:03.590Z,100259.04
2018-04-25T17:37:29.450Z,100279.47
2018-04-25T17:39:55.387Z,100278.75
2018-04-25T17:42:21.326Z,100285.29
2018-04-25T17:44:47.223Z,100286.62
2018-04-25T17:47:13.284Z,100296.98
2018-04-25T17:49:40.189Z,100291.34
2018-04-25T17:52:06.851Z,100293.41
2018-04-25T17:54:33.682Z,100307.25
2018-04-25T17:56:59.598Z,100313.62
2018-04-25T17:59:25.507Z,100316.42
2018-04-25T18:01:51.381Z,100319.73
2018-04-25T18:04:17.335Z,100308.25
2018-04-25T18:06:43.249Z,100310.69
2018-04-25T18:09:09.135Z,100309.41
2018-04-25T18:11:35.145Z,100314.48
2018-04-25T18:14:00.979Z,100314.76
2018-04-25T18:16:27.822Z,100314.92
2018-04-25T18:18:53.674Z,100309.89
2018-04-25T18:21:19.565Z,100325.38
2018-04-25T18:23:45.574Z,100325.71
2018-04-25T18:26:11.497Z,100329.18
2018-04-25T18:28:37.962Z,100321.17
2018-04-25T18:31:03.858Z,100328.20
2018-04-25T18:33:29.937Z,100332.06
2018-04-25T18:35:55.827Z,100327.90
2018-04-25T18:38:21.720Z,100332.48
2018-04-25T18:40:47.784Z,100316.90
2018-04-25T18:43:13.890Z,100318.93
2018-04-25T18:45:39.819Z,100319.43
2018-04-25T18:48:05.729Z,100313.55
2018-04-25T18:50:31.653Z,100333.81
2018-04-25T18:52:57.620Z,100341.30
2018-04-25T18:55:23.555Z,100349.05
2018-04-25T18:57:49.515Z,100348.94
2018-04-25T19:00:15.441Z,100349.42
2018-04-25T19:02:41.338Z,100352.06
2018-04-25T19:05:07.311Z,100348.20
2018-04-25T19:07:33.362Z,100354.67
2018-04-25T19:09:59.299Z,100363.39
2018-04-25T19:12:25.152Z,100375.23
2018-04-25T19:14:51.839Z,100384.38
2018-04-25T19:17:17.762Z,100396.84
2018-04-25T19:19:43.634Z,100419.90
2018-04-25T19:22:09.549Z,100444.37
2018-04-25T19:24:35.433Z,100462.66
2018-04-25T19:27:01.394Z,100438.41
2018-04-25T19:29:28.088Z,100456.64
2018-04-25T19:31:54.015Z,100456.63
2018-04-25T19:34:19.949Z,100444.95
2018-04-25T19:36:45.885Z,100407.30
2018-04-25T19:39:11.846Z,100412.88
2018-04-25T19:41:37.699Z,100410.66
2018-04-25T19:44:04.476Z,100428.55
2018-04-25T19:46:30.384Z,100425.17
2018-04-25T19:48:56.330Z,100426.44
2018-04-25T19:51:22.230Z,100423.08
2018-04-25T19:53:48.205Z,100428.89
2018-04-25T19:56:14.899Z,100432.17
2018-04-25T19:58:40.790Z,100432.58
2018-04-25T20:01:06.696Z,100431.60
2018-04-25T20:03:32.625Z,100434.36
2018-04-25T20:05:58.492Z,100434.34
2018-04-25T20:08:24.517Z,100436.38
2018-04-25T20:10:50.542Z,100441.48
2018-04-25T20:13:16.456Z,100440.41
2018-04-25T20:15:42.351Z,100438.63
2018-04-25T20:18:08.177Z,100445.23
2018-04-25T20:20:34.070Z,100441.78
2018-04-25T20:22:59.990Z,100436.78
2018-04-25T20:25:25.960Z,100441.09
2018-04-25T20:27:51.872Z,100446.50
2018-04-25T20:30:17.808Z,100449.12
2018-04-25T20:32:44.674Z,100444.42
2018-04-25T20:35:10.573Z,100453.41
2018-04-25T20:37:37.023Z,100444.88
2018-04-25T20:40:02.909Z,100448.81
2018-04-25T20:42:28.971Z,100452.39
2018-04-25T20:44:54.894Z,100443.58
2018-04-25T20:47:20.835Z,100445.76
2018-04-25T20:49:46.700Z,100443.85
2018-04-25T20:52:12.587Z,100449.65
2018-04-25T20:54:38.453Z,100452.39
2018-04-25T20:57:04.299Z,100447.75
2018-04-25T20:59:30.186Z,100444.30
2018-04-25T21:01:56.052Z,100439.16
2018-04-25T21:04:22.007Z,100444.70
2018-04-25T21:06:47.886Z,100450.37
2018-04-25T21:09:13.785Z,100438.66
2018-04-25T21:11:39.661Z,100439.31
2018-04-25T21:14:05.517Z,100437.22
2018-04-25T21:16:31.386Z,100439.28
2018-04-25T21:18:57.271Z,100439.25
2018-04-25T21:21:23.201Z,100436.33
2018-04-25T21:23:49.183Z,100427.23
2018-04-25T21:26:15.026Z,100429.98
2018-04-25T21:28:40.890Z,100429.87
2018-04-25T21:31:06.774Z,100433.37
2018-04-25T21:33:33.504Z,100430.84
2018-04-25T21:35:59.361Z,100435.05
2018-04-25T21:38:25.245Z,100437.20
2018-04-25T21:40:51.110Z,100438.16
2018-04-25T21:43:16.937Z,100441.81
2018-04-25T21:45:42.812Z,100442.68
2018-04-25T21:48:08.697Z,100446.41
2018-04-25T21:50:34.537Z,100447.72
2018-04-25T21:53:00.383Z,100456.06
2018-04-25T21:55:26.222Z,100450.60
2018-04-25T21:57:52.082Z,100451.94
2018-04-25T22:00:17.928Z,100447.84
2018-04-25T22:02:43.801Z,100447.96
2018-04-25T22:05:09.634Z,100446.47
2018-04-25T22:07:35.526Z,100455.59
2018-04-25T22:10:01.356Z,100464.72
2018-04-25T22:12:27.212Z,100462.62
2018-04-25T22:14:53.084Z,100466.48
2018-04-25T22:17:18.951Z,100461.95
2018-04-25T22:19:44.847Z,100462.45
2018-04-25T22:22:10.698Z,100462.41
2018-04-25T22:24:36.578Z,100458.84
2018-04-25T22:27:02.432Z,100454.07
2018-04-25T22:29:28.304Z,100450.77
2018-04-25T22:31:54.162Z,100453.38
2018-04-25T22:34:20.012Z,100460.63
2018-04-25T22:36:45.871Z,100462.37
2018-04-25T22:39:11.765Z,100460.63
2018-04-25T22:41:37.599Z,100455.19
2018-04-25T22:44:03.443Z,100460.07
2018-04-25T22:46:29.307Z,100463.23
2018-04-25T22:48:55.146Z,100460.66
2018-04-25T22:51:21.010Z,100467.16
2018-04-25T22:53:46.899Z,100457.17
2018-04-25T22:56:12.735Z,100461.30
2018-04-25T22:58:38.565Z,100460.97
2018-04-25T23:01:04.394Z,100462.42
2018-04-25T23:03:30.227Z,100461.61
2018-04-25T23:05:56.056Z,100460.03
2018-04-25T23:08:21.998Z,100460.12
2018-04-25T23:10:47.757Z,100458.38
2018-04-25T23:13:13.611Z,100463.63
2018-04-25T23:15:39.475Z,100458.73
2018-04-25T23:18:05.324Z,100456.61
2018-04-25T23:20:31.180Z,100450.23
2018-04-25T23:22:57.060Z,100444.22
2018-04-25T23:25:22.900Z,100441.28
2018-04-25T23:27:48.741Z,100439.19
2018-04-25T23:30:14.600Z,100440.95
2018-04-25T23:32:40.424Z,100438.72
2018-04-25T23:35:06.270Z,100436.72
2018-04-25T23:37:32.124Z,100447.46
2018-04-25T23:39:57.985Z,100441.30
2018-04-25T23:42:23.829Z,100445.59
2018-04-25T23:44:49.686Z,100447.84
2018-04-25T23:47:15.536Z,100447.95
2018-04-25T23:49:41.428Z,100442.27
2018-04-25T23:52:07.269Z,100441.39
2018-04-25T23:54:33.154Z,100437.09
2018-04-25T23:56:58.986Z,100440.14
2018-04-25T23:59:24.805Z,100433.23
